sensor_id;sensor_type;location;lat;lon;timestamp;P1;durP1;ratioP1;P2;durP2;ratioP2
52946;SDS011;45776;40.400;17.260;2022-10-19T00:03:31;38.33;;;18.33;;
52946;SDS011;45776;40.400;17.260;2022-10-19T00:05:56;36.67;;;18.60;;
52946;SDS011;45776;40.400;17.260;2022-10-19T00:08:22;32.90;;;16.92;;
52946;SDS011;45776;40.400;17.260;2022-10-19T00:10:47;33.05;;;16.88;;
52946;SDS011;45776;40.400;17.260;2022-10-19T00:13:12;33.05;;;17.42;;
52946;SDS011;45776;40.400;17.260;2022-10-19T00:15:38;34.47;;;17.63;;
52946;SDS011;45776;40.400;17.260;2022-10-19T00:18:04;32.38;;;17.00;;
52946;SDS011;45776;40.400;17.260;2022-10-19T00:20:29;33.47;;;17.60;;
52946;SDS011;45776;40.400;17.260;2022-10-19T00:22:55;36.80;;;17.50;;
52946;SDS011;45776;40.400;17.260;2022-10-19T00:25:20;34.67;;;17.05;;
52946;SDS011;45776;40.400;17.260;2022-10-19T00:27:45;37.83;;;18.83;;
52946;SDS011;45776;40.400;17.260;2022-10-19T00:30:10;33.90;;;17.48;;
52946;SDS011;45776;40.400;17.260;2022-10-19T00:32:36;34.25;;;17.10;;
52946;SDS011;45776;40.400;17.260;2022-10-19T00:35:01;35.13;;;17.95;;
52946;SDS011;45776;40.400;17.260;2022-10-19T00:37:28;35.22;;;18.60;;
52946;SDS011;45776;40.400;17.260;2022-10-19T00:39:53;36.30;;;17.60;;
52946;SDS011;45776;40.400;17.260;2022-10-19T00:42:19;30.85;;;15.98;;
52946;SDS011;45776;40.400;17.260;2022-10-19T00:47:12;32.75;;;16.80;;
52946;SDS011;45776;40.400;17.260;2022-10-19T00:49:38;29.70;;;15.13;;
52946;SDS011;45776;40.400;17.260;2022-10-19T00:52:09;38.50;;;18.75;;
52946;SDS011;45776;40.400;17.260;2022-10-19T00:54:35;36.53;;;18.48;;
52946;SDS011;45776;40.400;17.260;2022-10-19T00:57:02;35.13;;;16.92;;
52946;SDS011;45776;40.400;17.260;2022-10-19T00:59:27;31.75;;;16.00;;
52946;SDS011;45776;40.400;17.260;2022-10-19T01:01:56;32.95;;;16.13;;
52946;SDS011;45776;40.400;17.260;2022-10-19T01:04:22;32.70;;;16.95;;
52946;SDS011;45776;40.400;17.260;2022-10-19T01:06:48;32.45;;;16.25;;
52946;SDS011;45776;40.400;17.260;2022-10-19T01:09:14;30.25;;;15.35;;
52946;SDS011;45776;40.400;17.260;2022-10-19T01:16:52;31.73;;;16.33;;
52946;SDS011;45776;40.400;17.260;2022-10-19T01:22:06;31.63;;;17.23;;
52946;SDS011;45776;40.400;17.260;2022-10-19T01:34:48;30.48;;;16.30;;
52946;SDS011;45776;40.400;17.260;2022-10-19T01:37:21;33.42;;;16.30;;
52946;SDS011;45776;40.400;17.260;2022-10-19T01:42:34;31.63;;;16.42;;
52946;SDS011;45776;40.400;17.260;2022-10-19T01:45:06;33.33;;;16.70;;
52946;SDS011;45776;40.400;17.260;2022-10-19T01:52:39;34.80;;;17.08;;
52946;SDS011;45776;40.400;17.260;2022-10-19T01:55:06;35.50;;;17.40;;
52946;SDS011;45776;40.400;17.260;2022-10-19T01:57:34;32.85;;;18.55;;
52946;SDS011;45776;40.400;17.260;2022-10-19T02:00:00;31.40;;;16.95;;
52946;SDS011;45776;40.400;17.260;2022-10-19T02:02:31;32.45;;;17.10;;
52946;SDS011;45776;40.400;17.260;2022-10-19T02:04:58;30.75;;;16.42;;
52946;SDS011;45776;40.400;17.260;2022-10-19T02:07:24;33.20;;;17.05;;
52946;SDS011;45776;40.400;17.260;2022-10-19T02:09:50;32.10;;;17.42;;
52946;SDS011;45776;40.400;17.260;2022-10-19T02:12:15;32.08;;;16.77;;
52946;SDS011;45776;40.400;17.260;2022-10-19T02:14:45;35.72;;;17.02;;
52946;SDS011;45776;40.400;17.260;2022-10-19T02:17:15;34.10;;;16.98;;
52946;SDS011;45776;40.400;17.260;2022-10-19T02:19:42;35.88;;;18.00;;
52946;SDS011;45776;40.400;17.260;2022-10-19T02:22:07;35.22;;;17.23;;
52946;SDS011;45776;40.400;17.260;2022-10-19T02:24:33;34.05;;;17.13;;
52946;SDS011;45776;40.400;17.260;2022-10-19T02:26:58;30.95;;;16.88;;
52946;SDS011;45776;40.400;17.260;2022-10-19T02:29:25;34.75;;;16.88;;
52946;SDS011;45776;40.400;17.260;2022-10-19T02:31:51;31.27;;;16.38;;
52946;SDS011;45776;40.400;17.260;2022-10-19T02:34:16;34.67;;;16.88;;
52946;SDS011;45776;40.400;17.260;2022-10-19T02:36:41;32.45;;;16.83;;
52946;SDS011;45776;40.400;17.260;2022-10-19T02:39:07;34.72;;;17.23;;
52946;SDS011;45776;40.400;17.260;2022-10-19T02:41:37;33.42;;;16.92;;
52946;SDS011;45776;40.400;17.260;2022-10-19T02:44:06;31.33;;;16.27;;
52946;SDS011;45776;40.400;17.260;2022-10-19T02:46:37;34.28;;;16.88;;
52946;SDS011;45776;40.400;17.260;2022-10-19T02:49:05;32.72;;;15.20;;
52946;SDS011;45776;40.400;17.260;2022-10-19T02:51:54;34.88;;;17.58;;
52946;SDS011;45776;40.400;17.260;2022-10-19T02:54:16;27.35;;;15.35;;
52946;SDS011;45776;40.400;17.260;2022-10-19T02:56:42;34.30;;;16.30;;
52946;SDS011;45776;40.400;17.260;2022-10-19T02:59:07;29.02;;;15.68;;
52946;SDS011;45776;40.400;17.260;2022-10-19T03:01:33;33.80;;;16.35;;
52946;SDS011;45776;40.400;17.260;2022-10-19T03:03:58;30.13;;;15.77;;
52946;SDS011;45776;40.400;17.260;2022-10-19T03:06:23;27.10;;;14.57;;
52946;SDS011;45776;40.400;17.260;2022-10-19T03:08:49;28.00;;;14.90;;
52946;SDS011;45776;40.400;17.260;2022-10-19T03:11:14;34.25;;;16.42;;
52946;SDS011;45776;40.400;17.260;2022-10-19T03:13:40;34.92;;;16.63;;
52946;SDS011;45776;40.400;17.260;2022-10-19T03:16:08;32.33;;;15.88;;
52946;SDS011;45776;40.400;17.260;2022-10-19T03:18:34;30.92;;;15.50;;
52946;SDS011;45776;40.400;17.260;2022-10-19T03:21:06;29.98;;;16.25;;
52946;SDS011;45776;40.400;17.260;2022-10-19T03:23:32;31.55;;;16.85;;
52946;SDS011;45776;40.400;17.260;2022-10-19T03:25:57;32.33;;;16.30;;
52946;SDS011;45776;40.400;17.260;2022-10-19T03:28:22;31.65;;;16.42;;
52946;SDS011;45776;40.400;17.260;2022-10-19T03:30:48;36.72;;;17.55;;
52946;SDS011;45776;40.400;17.260;2022-10-19T03:33:13;39.22;;;17.88;;
52946;SDS011;45776;40.400;17.260;2022-10-19T03:35:39;35.15;;;18.17;;
52946;SDS011;45776;40.400;17.260;2022-10-19T03:38:04;32.80;;;16.55;;
52946;SDS011;45776;40.400;17.260;2022-10-19T03:40:29;32.92;;;16.73;;
52946;SDS011;45776;40.400;17.260;2022-10-19T03:42:54;36.60;;;18.00;;
52946;SDS011;45776;40.400;17.260;2022-10-19T03:45:20;33.92;;;17.20;;
52946;SDS011;45776;40.400;17.260;2022-10-19T03:47:49;38.92;;;17.70;;
52946;SDS011;45776;40.400;17.260;2022-10-19T03:50:14;34.22;;;17.60;;
52946;SDS011;45776;40.400;17.260;2022-10-19T03:52:41;35.47;;;17.35;;
52946;SDS011;45776;40.400;17.260;2022-10-19T03:55:06;32.75;;;16.90;;
52946;SDS011;45776;40.400;17.260;2022-10-19T03:57:32;32.95;;;16.73;;
52946;SDS011;45776;40.400;17.260;2022-10-19T03:59:57;26.58;;;14.80;;
52946;SDS011;45776;40.400;17.260;2022-10-19T04:02:22;33.70;;;16.80;;
52946;SDS011;45776;40.400;17.260;2022-10-19T04:04:47;32.92;;;16.58;;
52946;SDS011;45776;40.400;17.260;2022-10-19T04:07:13;34.90;;;16.45;;
52946;SDS011;45776;40.400;17.260;2022-10-19T04:09:38;32.33;;;16.77;;
52946;SDS011;45776;40.400;17.260;2022-10-19T04:12:03;34.13;;;16.08;;
52946;SDS011;45776;40.400;17.260;2022-10-19T04:14:28;32.45;;;16.75;;
52946;SDS011;45776;40.400;17.260;2022-10-19T04:16:54;28.92;;;15.85;;
52946;SDS011;45776;40.400;17.260;2022-10-19T04:19:19;33.17;;;16.67;;
52946;SDS011;45776;40.400;17.260;2022-10-19T04:21:46;29.05;;;14.82;;
52946;SDS011;45776;40.400;17.260;2022-10-19T04:24:12;28.63;;;15.25;;
52946;SDS011;45776;40.400;17.260;2022-10-19T04:26:45;32.95;;;17.48;;
52946;SDS011;45776;40.400;17.260;2022-10-19T04:29:10;28.77;;;16.05;;
52946;SDS011;45776;40.400;17.260;2022-10-19T04:31:36;33.22;;;16.52;;
52946;SDS011;45776;40.400;17.260;2022-10-19T04:34:02;31.30;;;15.50;;
52946;SDS011;45776;40.400;17.260;2022-10-19T04:36:27;32.70;;;15.77;;
52946;SDS011;45776;40.400;17.260;2022-10-19T04:38:53;36.15;;;16.48;;
52946;SDS011;45776;40.400;17.260;2022-10-19T04:41:19;32.25;;;15.60;;
52946;SDS011;45776;40.400;17.260;2022-10-19T04:43:45;32.97;;;16.02;;
52946;SDS011;45776;40.400;17.260;2022-10-19T04:46:14;30.27;;;17.02;;
52946;SDS011;45776;40.400;17.260;2022-10-19T04:48:40;37.83;;;16.40;;
52946;SDS011;45776;40.400;17.260;2022-10-19T04:51:06;30.30;;;14.75;;
52946;SDS011;45776;40.400;17.260;2022-10-19T04:53:31;29.08;;;15.55;;
52946;SDS011;45776;40.400;17.260;2022-10-19T04:55:57;32.90;;;15.38;;
52946;SDS011;45776;40.400;17.260;2022-10-19T04:58:22;31.70;;;15.73;;
52946;SDS011;45776;40.400;17.260;2022-10-19T05:00:48;32.50;;;16.45;;
52946;SDS011;45776;40.400;17.260;2022-10-19T05:03:13;32.45;;;16.08;;
52946;SDS011;45776;40.400;17.260;2022-10-19T05:05:39;31.77;;;14.55;;
52946;SDS011;45776;40.400;17.260;2022-10-19T05:08:04;26.02;;;13.10;;
52946;SDS011;45776;40.400;17.260;2022-10-19T05:10:30;24.08;;;13.65;;
52946;SDS011;45776;40.400;17.260;2022-10-19T05:12:55;22.67;;;12.27;;
52946;SDS011;45776;40.400;17.260;2022-10-19T05:15:20;26.08;;;14.32;;
52946;SDS011;45776;40.400;17.260;2022-10-19T05:17:46;23.90;;;12.75;;
52946;SDS011;45776;40.400;17.260;2022-10-19T05:20:11;30.45;;;12.98;;
52946;SDS011;45776;40.400;17.260;2022-10-19T05:22:37;24.88;;;13.05;;
52946;SDS011;45776;40.400;17.260;2022-10-19T05:25:02;25.30;;;13.85;;
52946;SDS011;45776;40.400;17.260;2022-10-19T05:27:28;25.65;;;12.98;;
52946;SDS011;45776;40.400;17.260;2022-10-19T05:29:53;24.48;;;13.10;;
52946;SDS011;45776;40.400;17.260;2022-10-19T05:32:18;26.40;;;13.45;;
52946;SDS011;45776;40.400;17.260;2022-10-19T05:34:43;24.63;;;13.02;;
52946;SDS011;45776;40.400;17.260;2022-10-19T05:37:09;25.80;;;13.63;;
52946;SDS011;45776;40.400;17.260;2022-10-19T05:39:34;26.33;;;13.50;;
52946;SDS011;45776;40.400;17.260;2022-10-19T05:41:59;31.50;;;14.10;;
52946;SDS011;45776;40.400;17.260;2022-10-19T05:44:25;23.58;;;12.65;;
52946;SDS011;45776;40.400;17.260;2022-10-19T05:46:50;25.52;;;14.07;;
52946;SDS011;45776;40.400;17.260;2022-10-19T05:49:16;26.60;;;13.40;;
52946;SDS011;45776;40.400;17.260;2022-10-19T05:51:42;26.65;;;14.00;;
52946;SDS011;45776;40.400;17.260;2022-10-19T05:54:08;26.23;;;13.55;;
52946;SDS011;45776;40.400;17.260;2022-10-19T05:56:34;23.80;;;13.38;;
52946;SDS011;45776;40.400;17.260;2022-10-19T05:59:00;26.05;;;13.18;;
52946;SDS011;45776;40.400;17.260;2022-10-19T06:01:26;26.02;;;13.98;;
52946;SDS011;45776;40.400;17.260;2022-10-19T06:03:52;27.40;;;13.55;;
52946;SDS011;45776;40.400;17.260;2022-10-19T06:06:18;26.17;;;13.10;;
52946;SDS011;45776;40.400;17.260;2022-10-19T06:08:44;28.98;;;13.93;;
52946;SDS011;45776;40.400;17.260;2022-10-19T06:13:35;23.98;;;13.30;;
52946;SDS011;45776;40.400;17.260;2022-10-19T06:16:00;26.95;;;13.15;;
52946;SDS011;45776;40.400;17.260;2022-10-19T06:18:26;24.33;;;13.38;;
52946;SDS011;45776;40.400;17.260;2022-10-19T06:20:51;24.23;;;13.07;;
52946;SDS011;45776;40.400;17.260;2022-10-19T06:23:17;27.17;;;12.68;;
52946;SDS011;45776;40.400;17.260;2022-10-19T06:25:42;28.50;;;13.50;;
52946;SDS011;45776;40.400;17.260;2022-10-19T06:28:07;22.27;;;12.63;;
52946;SDS011;45776;40.400;17.260;2022-10-19T06:30:33;27.25;;;13.73;;
52946;SDS011;45776;40.400;17.260;2022-10-19T06:32:58;20.80;;;12.23;;
52946;SDS011;45776;40.400;17.260;2022-10-19T06:35:24;23.38;;;11.90;;
52946;SDS011;45776;40.400;17.260;2022-10-19T06:37:49;22.40;;;11.43;;
52946;SDS011;45776;40.400;17.260;2022-10-19T06:40:14;22.30;;;12.30;;
52946;SDS011;45776;40.400;17.260;2022-10-19T06:42:40;26.95;;;12.15;;
52946;SDS011;45776;40.400;17.260;2022-10-19T06:45:06;21.17;;;10.45;;
52946;SDS011;45776;40.400;17.260;2022-10-19T06:47:32;22.40;;;12.23;;
52946;SDS011;45776;40.400;17.260;2022-10-19T06:49:57;24.25;;;11.80;;
52946;SDS011;45776;40.400;17.260;2022-10-19T06:52:23;23.48;;;11.55;;
52946;SDS011;45776;40.400;17.260;2022-10-19T06:54:48;22.00;;;11.45;;
52946;SDS011;45776;40.400;17.260;2022-10-19T06:57:13;21.88;;;11.32;;
52946;SDS011;45776;40.400;17.260;2022-10-19T06:59:39;22.35;;;11.32;;
52946;SDS011;45776;40.400;17.260;2022-10-19T07:02:04;19.60;;;11.50;;
52946;SDS011;45776;40.400;17.260;2022-10-19T07:04:29;20.95;;;11.75;;
52946;SDS011;45776;40.400;17.260;2022-10-19T07:06:55;21.13;;;11.57;;
52946;SDS011;45776;40.400;17.260;2022-10-19T07:09:20;18.98;;;9.70;;
52946;SDS011;45776;40.400;17.260;2022-10-19T07:11:46;21.17;;;11.50;;
52946;SDS011;45776;40.400;17.260;2022-10-19T07:14:12;19.50;;;10.35;;
52946;SDS011;45776;40.400;17.260;2022-10-19T07:16:37;20.85;;;11.52;;
52946;SDS011;45776;40.400;17.260;2022-10-19T07:19:02;18.20;;;10.68;;
52946;SDS011;45776;40.400;17.260;2022-10-19T07:21:27;17.33;;;10.45;;
52946;SDS011;45776;40.400;17.260;2022-10-19T07:23:53;20.40;;;10.85;;
52946;SDS011;45776;40.400;17.260;2022-10-19T07:26:22;19.20;;;10.55;;
52946;SDS011;45776;40.400;17.260;2022-10-19T07:31:16;18.48;;;10.40;;
52946;SDS011;45776;40.400;17.260;2022-10-19T07:33:42;19.35;;;9.90;;
52946;SDS011;45776;40.400;17.260;2022-10-19T07:36:08;20.45;;;10.30;;
52946;SDS011;45776;40.400;17.260;2022-10-19T07:38:34;20.40;;;9.88;;
52946;SDS011;45776;40.400;17.260;2022-10-19T07:41:03;18.00;;;9.88;;
52946;SDS011;45776;40.400;17.260;2022-10-19T07:43:29;15.57;;;9.38;;
52946;SDS011;45776;40.400;17.260;2022-10-19T07:45:58;15.82;;;9.35;;
52946;SDS011;45776;40.400;17.260;2022-10-19T07:48:24;19.00;;;9.63;;
52946;SDS011;45776;40.400;17.260;2022-10-19T07:50:49;17.50;;;9.70;;
52946;SDS011;45776;40.400;17.260;2022-10-19T07:53:14;15.65;;;9.43;;
52946;SDS011;45776;40.400;17.260;2022-10-19T07:55:40;19.45;;;10.07;;
52946;SDS011;45776;40.400;17.260;2022-10-19T07:58:05;20.67;;;10.02;;
52946;SDS011;45776;40.400;17.260;2022-10-19T08:00:30;22.90;;;9.77;;
52946;SDS011;45776;40.400;17.260;2022-10-19T08:02:56;18.05;;;9.98;;
52946;SDS011;45776;40.400;17.260;2022-10-19T08:05:21;19.30;;;10.38;;
52946;SDS011;45776;40.400;17.260;2022-10-19T08:07:46;18.42;;;10.40;;
52946;SDS011;45776;40.400;17.260;2022-10-19T08:10:12;18.27;;;10.00;;
52946;SDS011;45776;40.400;17.260;2022-10-19T08:12:37;19.38;;;10.35;;
52946;SDS011;45776;40.400;17.260;2022-10-19T08:15:03;20.77;;;11.25;;
52946;SDS011;45776;40.400;17.260;2022-10-19T08:17:31;17.80;;;10.23;;
52946;SDS011;45776;40.400;17.260;2022-10-19T08:19:56;20.15;;;10.05;;
52946;SDS011;45776;40.400;17.260;2022-10-19T08:22:21;18.92;;;10.45;;
52946;SDS011;45776;40.400;17.260;2022-10-19T08:24:47;20.45;;;9.98;;
52946;SDS011;45776;40.400;17.260;2022-10-19T08:27:12;20.30;;;10.20;;
52946;SDS011;45776;40.400;17.260;2022-10-19T08:29:38;21.95;;;10.45;;
52946;SDS011;45776;40.400;17.260;2022-10-19T08:32:04;20.33;;;9.90;;
52946;SDS011;45776;40.400;17.260;2022-10-19T08:34:29;16.88;;;10.23;;
52946;SDS011;45776;40.400;17.260;2022-10-19T08:36:54;15.43;;;8.65;;
52946;SDS011;45776;40.400;17.260;2022-10-19T08:39:20;17.45;;;9.23;;
52946;SDS011;45776;40.400;17.260;2022-10-19T08:42:08;16.50;;;9.05;;
52946;SDS011;45776;40.400;17.260;2022-10-19T08:49:42;18.20;;;10.13;;
52946;SDS011;45776;40.400;17.260;2022-10-19T08:52:17;17.95;;;9.68;;
52946;SDS011;45776;40.400;17.260;2022-10-19T08:54:53;15.93;;;9.77;;
52946;SDS011;45776;40.400;17.260;2022-10-19T09:05:32;18.35;;;9.75;;
52946;SDS011;45776;40.400;17.260;2022-10-19T09:07:59;19.70;;;10.45;;
52946;SDS011;45776;40.400;17.260;2022-10-19T09:10:28;19.25;;;9.68;;
52946;SDS011;45776;40.400;17.260;2022-10-19T09:15:26;15.82;;;9.50;;
52946;SDS011;45776;40.400;17.260;2022-10-19T09:17:53;22.30;;;9.38;;
52946;SDS011;45776;40.400;17.260;2022-10-19T09:20:19;17.08;;;9.70;;
52946;SDS011;45776;40.400;17.260;2022-10-19T09:22:48;20.02;;;10.45;;
52946;SDS011;45776;40.400;17.260;2022-10-19T09:25:21;16.77;;;9.70;;
52946;SDS011;45776;40.400;17.260;2022-10-19T09:27:48;16.15;;;8.90;;
52946;SDS011;45776;40.400;17.260;2022-10-19T09:30:18;20.85;;;10.40;;
52946;SDS011;45776;40.400;17.260;2022-10-19T09:32:44;17.45;;;9.13;;
52946;SDS011;45776;40.400;17.260;2022-10-19T09:37:46;17.95;;;9.43;;
52946;SDS011;45776;40.400;17.260;2022-10-19T09:40:20;18.48;;;9.48;;
52946;SDS011;45776;40.400;17.260;2022-10-19T09:42:45;17.00;;;9.10;;
52946;SDS011;45776;40.400;17.260;2022-10-19T09:45:15;17.38;;;9.10;;
52946;SDS011;45776;40.400;17.260;2022-10-19T09:47:43;16.02;;;8.55;;
52946;SDS011;45776;40.400;17.260;2022-10-19T09:52:38;15.07;;;8.75;;
52946;SDS011;45776;40.400;17.260;2022-10-19T09:57:32;17.55;;;8.80;;
52946;SDS011;45776;40.400;17.260;2022-10-19T09:59:57;15.57;;;9.23;;
52946;SDS011;45776;40.400;17.260;2022-10-19T10:02:32;18.08;;;9.02;;
52946;SDS011;45776;40.400;17.260;2022-10-19T10:05:12;15.98;;;9.48;;
52946;SDS011;45776;40.400;17.260;2022-10-19T10:07:37;17.08;;;8.95;;
52946;SDS011;45776;40.400;17.260;2022-10-19T10:10:26;17.35;;;9.82;;
52946;SDS011;45776;40.400;17.260;2022-10-19T10:12:49;17.83;;;9.55;;
52946;SDS011;45776;40.400;17.260;2022-10-19T10:15:16;18.92;;;10.00;;
52946;SDS011;45776;40.400;17.260;2022-10-19T10:17:43;18.58;;;10.10;;
52946;SDS011;45776;40.400;17.260;2022-10-19T10:20:42;19.05;;;10.07;;
52946;SDS011;45776;40.400;17.260;2022-10-19T10:23:02;16.90;;;9.63;;
52946;SDS011;45776;40.400;17.260;2022-10-19T10:25:30;16.83;;;9.60;;
52946;SDS011;45776;40.400;17.260;2022-10-19T10:30:23;17.45;;;9.48;;
52946;SDS011;45776;40.400;17.260;2022-10-19T10:32:51;15.80;;;9.38;;
52946;SDS011;45776;40.400;17.260;2022-10-19T10:35:18;15.18;;;9.45;;
52946;SDS011;45776;40.400;17.260;2022-10-19T10:37:45;18.00;;;9.85;;
52946;SDS011;45776;40.400;17.260;2022-10-19T10:40:25;18.88;;;10.93;;
52946;SDS011;45776;40.400;17.260;2022-10-19T10:42:51;20.20;;;10.50;;
52946;SDS011;45776;40.400;17.260;2022-10-19T10:45:28;18.33;;;10.25;;
52946;SDS011;45776;40.400;17.260;2022-10-19T10:47:54;20.20;;;9.50;;
52946;SDS011;45776;40.400;17.260;2022-10-19T10:50:21;16.38;;;9.57;;
52946;SDS011;45776;40.400;17.260;2022-10-19T10:55:39;17.13;;;8.80;;
52946;SDS011;45776;40.400;17.260;2022-10-19T10:58:14;17.15;;;10.15;;
52946;SDS011;45776;40.400;17.260;2022-10-19T11:00:42;16.58;;;9.35;;
52946;SDS011;45776;40.400;17.260;2022-10-19T11:03:24;16.23;;;9.45;;
52946;SDS011;45776;40.400;17.260;2022-10-19T11:05:52;17.77;;;9.75;;
52946;SDS011;45776;40.400;17.260;2022-10-19T11:13:13;18.98;;;10.75;;
52946;SDS011;45776;40.400;17.260;2022-10-19T11:15:43;18.38;;;10.30;;
52946;SDS011;45776;40.400;17.260;2022-10-19T11:18:17;19.65;;;10.07;;
52946;SDS011;45776;40.400;17.260;2022-10-19T11:23:13;18.85;;;10.60;;
52946;SDS011;45776;40.400;17.260;2022-10-19T11:36:00;23.20;;;11.20;;
52946;SDS011;45776;40.400;17.260;2022-10-19T11:38:39;16.60;;;10.50;;
52946;SDS011;45776;40.400;17.260;2022-10-19T11:44:44;19.48;;;11.15;;
52946;SDS011;45776;40.400;17.260;2022-10-19T11:54:29;20.65;;;11.60;;
52946;SDS011;45776;40.400;17.260;2022-10-19T11:57:18;17.70;;;10.70;;
52946;SDS011;45776;40.400;17.260;2022-10-19T11:59:55;18.17;;;10.93;;
52946;SDS011;45776;40.400;17.260;2022-10-19T12:10:45;21.42;;;11.45;;
52946;SDS011;45776;40.400;17.260;2022-10-19T12:13:13;20.58;;;10.63;;
52946;SDS011;45776;40.400;17.260;2022-10-19T12:18:27;21.13;;;11.10;;
52946;SDS011;45776;40.400;17.260;2022-10-19T12:20:54;19.70;;;11.00;;
52946;SDS011;45776;40.400;17.260;2022-10-19T12:23:22;20.40;;;11.25;;
52946;SDS011;45776;40.400;17.260;2022-10-19T12:25:48;17.25;;;10.43;;
52946;SDS011;45776;40.400;17.260;2022-10-19T12:28:20;18.92;;;11.00;;
52946;SDS011;45776;40.400;17.260;2022-10-19T12:30:47;18.85;;;10.85;;
52946;SDS011;45776;40.400;17.260;2022-10-19T12:33:22;17.55;;;10.50;;
52946;SDS011;45776;40.400;17.260;2022-10-19T12:41:12;18.52;;;10.68;;
52946;SDS011;45776;40.400;17.260;2022-10-19T12:43:43;21.05;;;11.75;;
52946;SDS011;45776;40.400;17.260;2022-10-19T12:46:30;19.95;;;11.45;;
52946;SDS011;45776;40.400;17.260;2022-10-19T12:51:44;21.38;;;11.68;;
52946;SDS011;45776;40.400;17.260;2022-10-19T12:54:10;21.02;;;11.85;;
52946;SDS011;45776;40.400;17.260;2022-10-19T12:56:45;21.50;;;11.50;;
52946;SDS011;45776;40.400;17.260;2022-10-19T12:59:18;21.40;;;11.85;;
52946;SDS011;45776;40.400;17.260;2022-10-19T13:01:45;21.02;;;11.88;;
52946;SDS011;45776;40.400;17.260;2022-10-19T13:06:36;22.17;;;11.57;;
52946;SDS011;45776;40.400;17.260;2022-10-19T13:09:03;21.95;;;13.00;;
52946;SDS011;45776;40.400;17.260;2022-10-19T13:11:29;21.85;;;12.10;;
52946;SDS011;45776;40.400;17.260;2022-10-19T13:24:38;23.63;;;12.30;;
52946;SDS011;45776;40.400;17.260;2022-10-19T13:29:38;21.13;;;12.90;;
52946;SDS011;45776;40.400;17.260;2022-10-19T13:34:48;22.80;;;13.85;;
52946;SDS011;45776;40.400;17.260;2022-10-19T13:37:13;24.48;;;13.05;;
52946;SDS011;45776;40.400;17.260;2022-10-19T13:39:40;23.15;;;12.70;;
52946;SDS011;45776;40.400;17.260;2022-10-19T13:42:11;22.40;;;13.25;;
52946;SDS011;45776;40.400;17.260;2022-10-19T13:44:46;17.77;;;11.63;;
52946;SDS011;45776;40.400;17.260;2022-10-19T13:47:24;21.95;;;13.30;;
52946;SDS011;45776;40.400;17.260;2022-10-19T13:52:35;20.05;;;12.05;;
52946;SDS011;45776;40.400;17.260;2022-10-19T14:05:35;20.75;;;11.52;;
52946;SDS011;45776;40.400;17.260;2022-10-19T14:10:25;22.52;;;11.82;;
52946;SDS011;45776;40.400;17.260;2022-10-19T14:12:51;18.05;;;11.18;;
52946;SDS011;45776;40.400;17.260;2022-10-19T14:17:41;19.20;;;11.40;;
52946;SDS011;45776;40.400;17.260;2022-10-19T14:20:23;18.92;;;11.43;;
52946;SDS011;45776;40.400;17.260;2022-10-19T14:22:48;17.65;;;11.13;;
52946;SDS011;45776;40.400;17.260;2022-10-19T14:25:18;17.77;;;10.93;;
52946;SDS011;45776;40.400;17.260;2022-10-19T14:27:46;20.30;;;11.70;;
52946;SDS011;45776;40.400;17.260;2022-10-19T14:30:22;18.95;;;11.13;;
52946;SDS011;45776;40.400;17.260;2022-10-19T14:32:48;16.85;;;10.63;;
52946;SDS011;45776;40.400;17.260;2022-10-19T14:35:18;17.42;;;10.13;;
52946;SDS011;45776;40.400;17.260;2022-10-19T14:37:44;15.33;;;9.57;;
52946;SDS011;45776;40.400;17.260;2022-10-19T14:42:44;19.05;;;9.73;;
52946;SDS011;45776;40.400;17.260;2022-10-19T14:45:23;14.10;;;8.13;;
52946;SDS011;45776;40.400;17.260;2022-10-19T14:47:50;14.57;;;8.63;;
52946;SDS011;45776;40.400;17.260;2022-10-19T14:50:16;14.90;;;9.35;;
52946;SDS011;45776;40.400;17.260;2022-10-19T14:52:41;14.85;;;8.45;;
52946;SDS011;45776;40.400;17.260;2022-10-19T14:55:08;15.02;;;8.38;;
52946;SDS011;45776;40.400;17.260;2022-10-19T14:57:35;14.75;;;8.75;;
52946;SDS011;45776;40.400;17.260;2022-10-19T15:00:03;10.48;;;7.43;;
52946;SDS011;45776;40.400;17.260;2022-10-19T15:02:30;12.88;;;8.23;;
52946;SDS011;45776;40.400;17.260;2022-10-19T15:04:56;16.38;;;8.52;;
52946;SDS011;45776;40.400;17.260;2022-10-19T15:09:49;12.98;;;7.82;;
52946;SDS011;45776;40.400;17.260;2022-10-19T15:12:16;11.18;;;7.97;;
52946;SDS011;45776;40.400;17.260;2022-10-19T15:14:43;14.57;;;8.32;;
52946;SDS011;45776;40.400;17.260;2022-10-19T15:19:46;12.93;;;8.45;;
52946;SDS011;45776;40.400;17.260;2022-10-19T15:22:19;15.68;;;9.23;;
52946;SDS011;45776;40.400;17.260;2022-10-19T15:24:59;16.50;;;9.15;;
52946;SDS011;45776;40.400;17.260;2022-10-19T15:27:29;15.45;;;9.60;;
52946;SDS011;45776;40.400;17.260;2022-10-19T15:30:40;16.63;;;9.18;;
52946;SDS011;45776;40.400;17.260;2022-10-19T15:32:40;15.43;;;9.50;;
52946;SDS011;45776;40.400;17.260;2022-10-19T15:37:49;15.98;;;9.20;;
52946;SDS011;45776;40.400;17.260;2022-10-19T15:40:19;16.55;;;10.48;;
52946;SDS011;45776;40.400;17.260;2022-10-19T15:42:46;13.95;;;8.70;;
52946;SDS011;45776;40.400;17.260;2022-10-19T15:50:44;15.32;;;9.52;;
52946;SDS011;45776;40.400;17.260;2022-10-19T15:53:11;16.35;;;10.02;;
52946;SDS011;45776;40.400;17.260;2022-10-19T15:55:37;15.73;;;10.20;;
52946;SDS011;45776;40.400;17.260;2022-10-19T15:58:02;17.58;;;10.70;;
52946;SDS011;45776;40.400;17.260;2022-10-19T16:00:28;15.90;;;10.18;;
52946;SDS011;45776;40.400;17.260;2022-10-19T16:02:54;19.70;;;10.77;;
52946;SDS011;45776;40.400;17.260;2022-10-19T16:05:19;19.40;;;11.02;;
52946;SDS011;45776;40.400;17.260;2022-10-19T16:07:44;14.98;;;10.23;;
52946;SDS011;45776;40.400;17.260;2022-10-19T16:10:19;18.05;;;10.57;;
52946;SDS011;45776;40.400;17.260;2022-10-19T16:12:45;17.25;;;11.32;;
52946;SDS011;45776;40.400;17.260;2022-10-19T16:15:11;17.77;;;10.65;;
52946;SDS011;45776;40.400;17.260;2022-10-19T16:17:36;18.73;;;11.25;;
52946;SDS011;45776;40.400;17.260;2022-10-19T16:20:01;28.00;;;12.95;;
52946;SDS011;45776;40.400;17.260;2022-10-19T16:22:27;27.23;;;14.27;;
52946;SDS011;45776;40.400;17.260;2022-10-19T16:24:52;35.67;;;17.15;;
52946;SDS011;45776;40.400;17.260;2022-10-19T16:27:17;43.65;;;18.83;;
52946;SDS011;45776;40.400;17.260;2022-10-19T16:29:43;28.80;;;14.52;;
52946;SDS011;45776;40.400;17.260;2022-10-19T16:32:08;29.83;;;14.60;;
52946;SDS011;45776;40.400;17.260;2022-10-19T16:34:33;26.35;;;14.50;;
52946;SDS011;45776;40.400;17.260;2022-10-19T16:36:59;23.70;;;13.32;;
52946;SDS011;45776;40.400;17.260;2022-10-19T16:39:24;23.33;;;13.15;;
52946;SDS011;45776;40.400;17.260;2022-10-19T16:41:49;23.05;;;13.07;;
52946;SDS011;45776;40.400;17.260;2022-10-19T16:44:15;24.45;;;13.13;;
52946;SDS011;45776;40.400;17.260;2022-10-19T16:46:40;26.85;;;14.57;;
52946;SDS011;45776;40.400;17.260;2022-10-19T16:49:06;24.55;;;14.18;;
52946;SDS011;45776;40.400;17.260;2022-10-19T16:51:35;25.38;;;13.50;;
52946;SDS011;45776;40.400;17.260;2022-10-19T16:54:01;24.23;;;14.20;;
52946;SDS011;45776;40.400;17.260;2022-10-19T16:56:27;25.15;;;13.43;;